Terminal Aerodrome Forecast
Issued by NWS Springfield, MO

Home | Current Version | Previous Version | Text Only | Print | Product List | Glossary On
Versions: 1 2 3 4 5 6 7 8 9 10 11 12 13 14 15 16 17 18 19
000
FTUS43 KSGF 300841 AAA
TAFSGF
TAF AMD
KSGF 300841Z 3009/0106 13014G20KT P6SM OVC010
     FM301000 15014G20KT 5SM BR OVC005
     FM301200 18010KT 3SM BR OVC004
     FM301500 22012KT P6SM BKN010 OVC020
     FM301700 24012KT P6SM SCT035
     FM010000 27007KT P6SM SKC=

USA.gov is the U.S. government's official web portal to all federal, state and local government web resources and services.